sensor_id;sensor_type;location;lat;lon;timestamp;P1;durP1;ratioP1;P2;durP2;ratioP2
46505;SDS011;32220;49.808;9.968;2022-10-26T00:01:18;4.50;;;3.57;;
46505;SDS011;32220;49.808;9.968;2022-10-26T00:03:47;3.40;;;3.10;;
46505;SDS011;32220;49.808;9.968;2022-10-26T00:06:15;2.67;;;2.47;;
46505;SDS011;32220;49.808;9.968;2022-10-26T00:08:44;3.07;;;2.77;;
46505;SDS011;32220;49.808;9.968;2022-10-26T00:11:12;2.90;;;2.60;;
46505;SDS011;32220;49.808;9.968;2022-10-26T00:13:41;5.07;;;3.03;;
46505;SDS011;32220;49.808;9.968;2022-10-26T00:16:09;3.30;;;2.70;;
46505;SDS011;32220;49.808;9.968;2022-10-26T00:18:39;2.80;;;2.47;;
46505;SDS011;32220;49.808;9.968;2022-10-26T00:21:08;3.47;;;2.60;;
46505;SDS011;32220;49.808;9.968;2022-10-26T00:23:37;3.60;;;2.73;;
46505;SDS011;32220;49.808;9.968;2022-10-26T00:26:04;3.87;;;2.67;;
46505;SDS011;32220;49.808;9.968;2022-10-26T00:28:33;3.80;;;2.80;;
46505;SDS011;32220;49.808;9.968;2022-10-26T00:31:01;3.87;;;2.63;;
46505;SDS011;32220;49.808;9.968;2022-10-26T00:33:29;2.73;;;2.53;;
46505;SDS011;32220;49.808;9.968;2022-10-26T00:35:57;3.20;;;2.40;;
46505;SDS011;32220;49.808;9.968;2022-10-26T00:38:26;2.90;;;2.53;;
46505;SDS011;32220;49.808;9.968;2022-10-26T00:40:54;3.93;;;2.83;;
46505;SDS011;32220;49.808;9.968;2022-10-26T00:43:32;2.60;;;2.40;;
46505;SDS011;32220;49.808;9.968;2022-10-26T00:46:01;3.83;;;2.60;;
46505;SDS011;32220;49.808;9.968;2022-10-26T00:48:32;3.40;;;2.63;;
46505;SDS011;32220;49.808;9.968;2022-10-26T00:51:05;4.97;;;2.80;;
46505;SDS011;32220;49.808;9.968;2022-10-26T00:53:36;2.40;;;2.20;;
46505;SDS011;32220;49.808;9.968;2022-10-26T00:56:05;2.77;;;2.43;;
46505;SDS011;32220;49.808;9.968;2022-10-26T09:07:49;8.80;;;6.57;;
46505;SDS011;32220;49.808;9.968;2022-10-26T09:10:28;7.37;;;6.17;;
46505;SDS011;32220;49.808;9.968;2022-10-26T09:13:04;7.73;;;6.23;;
46505;SDS011;32220;49.808;9.968;2022-10-26T09:15:41;6.37;;;5.63;;
46505;SDS011;32220;49.808;9.968;2022-10-26T09:18:22;9.80;;;6.03;;
46505;SDS011;32220;49.808;9.968;2022-10-26T09:21:04;6.40;;;5.80;;
46505;SDS011;32220;49.808;9.968;2022-10-26T09:23:53;7.13;;;5.60;;
46505;SDS011;32220;49.808;9.968;2022-10-26T09:26:27;7.90;;;5.50;;
46505;SDS011;32220;49.808;9.968;2022-10-26T09:29:00;6.67;;;5.77;;
46505;SDS011;32220;49.808;9.968;2022-10-26T09:31:29;5.37;;;4.60;;
46505;SDS011;32220;49.808;9.968;2022-10-26T09:34:01;5.03;;;4.50;;
46505;SDS011;32220;49.808;9.968;2022-10-26T09:36:33;6.07;;;4.90;;
46505;SDS011;32220;49.808;9.968;2022-10-26T09:39:09;5.60;;;4.50;;
46505;SDS011;32220;49.808;9.968;2022-10-26T09:41:42;4.67;;;4.03;;
46505;SDS011;32220;49.808;9.968;2022-10-26T09:44:17;5.77;;;3.80;;
46505;SDS011;32220;49.808;9.968;2022-10-26T09:46:54;11.37;;;4.20;;
46505;SDS011;32220;49.808;9.968;2022-10-26T09:49:25;6.87;;;3.87;;
46505;SDS011;32220;49.808;9.968;2022-10-26T09:51:59;8.20;;;4.27;;
46505;SDS011;32220;49.808;9.968;2022-10-26T09:54:29;4.03;;;3.20;;
46505;SDS011;32220;49.808;9.968;2022-10-26T09:56:57;3.50;;;3.20;;
46505;SDS011;32220;49.808;9.968;2022-10-26T09:59:27;8.47;;;3.90;;
46505;SDS011;32220;49.808;9.968;2022-10-26T10:02:00;6.97;;;3.83;;
46505;SDS011;32220;49.808;9.968;2022-10-26T10:04:29;4.07;;;3.43;;
46505;SDS011;32220;49.808;9.968;2022-10-26T10:07:10;5.33;;;3.67;;
46505;SDS011;32220;49.808;9.968;2022-10-26T10:09:41;5.77;;;3.43;;
46505;SDS011;32220;49.808;9.968;2022-10-26T10:12:17;4.63;;;3.50;;
46505;SDS011;32220;49.808;9.968;2022-10-26T10:14:54;3.83;;;3.53;;
46505;SDS011;32220;49.808;9.968;2022-10-26T10:17:23;7.60;;;3.63;;
46505;SDS011;32220;49.808;9.968;2022-10-26T10:19:52;4.13;;;3.37;;
46505;SDS011;32220;49.808;9.968;2022-10-26T10:22:20;4.40;;;3.10;;
46505;SDS011;32220;49.808;9.968;2022-10-26T10:24:53;6.10;;;3.73;;
46505;SDS011;32220;49.808;9.968;2022-10-26T10:27:22;4.27;;;3.13;;
46505;SDS011;32220;49.808;9.968;2022-10-26T10:29:51;5.90;;;3.83;;
46505;SDS011;32220;49.808;9.968;2022-10-26T10:32:21;3.97;;;3.57;;
46505;SDS011;32220;49.808;9.968;2022-10-26T10:34:51;6.07;;;4.03;;
46505;SDS011;32220;49.808;9.968;2022-10-26T10:37:22;3.97;;;3.40;;
46505;SDS011;32220;49.808;9.968;2022-10-26T10:39:56;4.97;;;3.57;;
46505;SDS011;32220;49.808;9.968;2022-10-26T10:42:25;8.40;;;3.80;;
46505;SDS011;32220;49.808;9.968;2022-10-26T10:44:57;4.80;;;3.20;;
46505;SDS011;32220;49.808;9.968;2022-10-26T10:47:27;5.30;;;3.10;;
46505;SDS011;32220;49.808;9.968;2022-10-26T10:49:57;5.33;;;3.00;;
46505;SDS011;32220;49.808;9.968;2022-10-26T10:52:29;2.90;;;2.43;;
46505;SDS011;32220;49.808;9.968;2022-10-26T10:55:02;3.83;;;3.40;;
46505;SDS011;32220;49.808;9.968;2022-10-26T10:57:44;5.23;;;2.87;;
46505;SDS011;32220;49.808;9.968;2022-10-26T11:00:26;3.83;;;2.80;;
46505;SDS011;32220;49.808;9.968;2022-10-26T11:03:04;6.13;;;2.87;;
46505;SDS011;32220;49.808;9.968;2022-10-26T11:05:54;4.63;;;2.30;;
46505;SDS011;32220;49.808;9.968;2022-10-26T11:08:33;4.73;;;2.20;;
46505;SDS011;32220;49.808;9.968;2022-10-26T11:11:08;4.60;;;2.70;;
46505;SDS011;32220;49.808;9.968;2022-10-26T11:13:40;4.33;;;2.20;;
46505;SDS011;32220;49.808;9.968;2022-10-26T11:16:15;5.50;;;2.60;;
46505;SDS011;32220;49.808;9.968;2022-10-26T11:18:49;3.97;;;2.70;;
46505;SDS011;32220;49.808;9.968;2022-10-26T11:21:24;4.73;;;2.40;;
46505;SDS011;32220;49.808;9.968;2022-10-26T11:23:56;5.23;;;2.00;;
46505;SDS011;32220;49.808;9.968;2022-10-26T11:26:38;2.90;;;1.95;;
46505;SDS011;32220;49.808;9.968;2022-10-26T11:29:11;2.58;;;1.90;;
46505;SDS011;32220;49.808;9.968;2022-10-26T11:31:49;3.20;;;2.00;;
46505;SDS011;32220;49.808;9.968;2022-10-26T11:34:24;3.03;;;1.80;;
46505;SDS011;32220;49.808;9.968;2022-10-26T11:36:57;3.20;;;1.77;;
46505;SDS011;32220;49.808;9.968;2022-10-26T11:39:33;5.22;;;1.70;;
46505;SDS011;32220;49.808;9.968;2022-10-26T11:42:14;5.20;;;2.30;;
46505;SDS011;32220;49.808;9.968;2022-10-26T11:44:49;3.92;;;2.13;;
46505;SDS011;32220;49.808;9.968;2022-10-26T11:47:23;2.72;;;1.65;;
46505;SDS011;32220;49.808;9.968;2022-10-26T11:50:01;3.75;;;1.92;;
46505;SDS011;32220;49.808;9.968;2022-10-26T11:52:32;3.75;;;1.50;;
46505;SDS011;32220;49.808;9.968;2022-10-26T11:55:07;3.20;;;2.20;;
46505;SDS011;32220;49.808;9.968;2022-10-26T11:57:38;2.50;;;1.52;;
46505;SDS011;32220;49.808;9.968;2022-10-26T12:00:13;4.20;;;1.73;;
46505;SDS011;32220;49.808;9.968;2022-10-26T12:02:45;3.78;;;1.65;;
46505;SDS011;32220;49.808;9.968;2022-10-26T12:05:19;3.65;;;1.70;;
46505;SDS011;32220;49.808;9.968;2022-10-26T12:07:50;2.30;;;1.73;;
46505;SDS011;32220;49.808;9.968;2022-10-26T12:10:22;3.45;;;2.35;;
46505;SDS011;32220;49.808;9.968;2022-10-26T12:12:56;4.68;;;1.58;;
46505;SDS011;32220;49.808;9.968;2022-10-26T12:15:32;3.03;;;1.83;;
46505;SDS011;32220;49.808;9.968;2022-10-26T12:18:09;1.85;;;1.40;;
46505;SDS011;32220;49.808;9.968;2022-10-26T12:20:51;3.75;;;1.88;;
46505;SDS011;32220;49.808;9.968;2022-10-26T12:23:22;2.65;;;1.40;;
46505;SDS011;32220;49.808;9.968;2022-10-26T12:25:50;3.22;;;1.55;;
46505;SDS011;32220;49.808;9.968;2022-10-26T12:41:13;4.47;;;1.85;;
46505;SDS011;32220;49.808;9.968;2022-10-26T12:43:46;5.15;;;1.67;;
46505;SDS011;32220;49.808;9.968;2022-10-26T12:52:25;3.47;;;2.13;;
46505;SDS011;32220;49.808;9.968;2022-10-26T12:57:48;4.40;;;1.80;;
46505;SDS011;32220;49.808;9.968;2022-10-26T13:00:28;3.27;;;1.80;;
46505;SDS011;32220;49.808;9.968;2022-10-26T13:03:01;2.77;;;1.87;;
46505;SDS011;32220;49.808;9.968;2022-10-26T13:08:45;2.30;;;1.50;;
46505;SDS011;32220;49.808;9.968;2022-10-26T13:11:17;2.80;;;1.80;;
46505;SDS011;32220;49.808;9.968;2022-10-26T13:13:51;2.97;;;1.70;;
46505;SDS011;32220;49.808;9.968;2022-10-26T13:16:21;5.03;;;1.93;;
46505;SDS011;32220;49.808;9.968;2022-10-26T13:18:52;4.30;;;2.13;;
46505;SDS011;32220;49.808;9.968;2022-10-26T13:21:20;3.73;;;1.80;;
46505;SDS011;32220;49.808;9.968;2022-10-26T13:23:56;2.23;;;1.50;;
46505;SDS011;32220;49.808;9.968;2022-10-26T13:26:30;2.73;;;1.50;;
46505;SDS011;32220;49.808;9.968;2022-10-26T13:28:59;3.20;;;2.00;;
46505;SDS011;32220;49.808;9.968;2022-10-26T13:34:23;3.27;;;1.87;;
46505;SDS011;32220;49.808;9.968;2022-10-26T13:36:58;5.03;;;1.80;;
46505;SDS011;32220;49.808;9.968;2022-10-26T13:39:34;4.37;;;1.90;;
46505;SDS011;32220;49.808;9.968;2022-10-26T13:42:04;3.27;;;1.70;;
46505;SDS011;32220;49.808;9.968;2022-10-26T13:44:34;4.43;;;1.83;;
46505;SDS011;32220;49.808;9.968;2022-10-26T13:47:09;2.10;;;1.60;;
46505;SDS011;32220;49.808;9.968;2022-10-26T13:49:41;3.83;;;1.57;;
46505;SDS011;32220;49.808;9.968;2022-10-26T13:52:14;2.77;;;1.60;;
46505;SDS011;32220;49.808;9.968;2022-10-26T13:54:47;3.90;;;1.80;;
46505;SDS011;32220;49.808;9.968;2022-10-26T13:57:21;7.33;;;2.83;;
46505;SDS011;32220;49.808;9.968;2022-10-26T13:59:54;3.53;;;1.60;;
46505;SDS011;32220;49.808;9.968;2022-10-26T14:02:25;4.50;;;1.70;;
46505;SDS011;32220;49.808;9.968;2022-10-26T14:04:58;2.63;;;2.10;;
46505;SDS011;32220;49.808;9.968;2022-10-26T14:07:28;3.53;;;1.57;;
46505;SDS011;32220;49.808;9.968;2022-10-26T14:10:04;4.07;;;1.60;;
46505;SDS011;32220;49.808;9.968;2022-10-26T14:12:32;3.00;;;1.47;;
46505;SDS011;32220;49.808;9.968;2022-10-26T14:15:01;2.10;;;1.23;;
46505;SDS011;32220;49.808;9.968;2022-10-26T14:17:33;1.60;;;1.37;;
46505;SDS011;32220;49.808;9.968;2022-10-26T14:20:01;3.30;;;1.50;;
46505;SDS011;32220;49.808;9.968;2022-10-26T14:22:30;3.13;;;1.17;;
46505;SDS011;32220;49.808;9.968;2022-10-26T14:24:59;7.03;;;1.70;;
46505;SDS011;32220;49.808;9.968;2022-10-26T14:27:31;1.70;;;1.43;;
46505;SDS011;32220;49.808;9.968;2022-10-26T14:30:18;3.33;;;1.20;;
46505;SDS011;32220;49.808;9.968;2022-10-26T14:32:48;2.00;;;1.40;;
46505;SDS011;32220;49.808;9.968;2022-10-26T14:35:16;3.27;;;1.27;;
46505;SDS011;32220;49.808;9.968;2022-10-26T14:37:48;4.47;;;1.60;;
46505;SDS011;32220;49.808;9.968;2022-10-26T14:40:19;3.17;;;1.20;;
46505;SDS011;32220;49.808;9.968;2022-10-26T14:42:50;1.90;;;1.20;;
46505;SDS011;32220;49.808;9.968;2022-10-26T14:45:21;5.30;;;1.70;;
46505;SDS011;32220;49.808;9.968;2022-10-26T14:47:51;3.30;;;1.20;;
46505;SDS011;32220;49.808;9.968;2022-10-26T14:50:20;3.23;;;1.13;;
46505;SDS011;32220;49.808;9.968;2022-10-26T14:52:50;1.23;;;1.10;;
46505;SDS011;32220;49.808;9.968;2022-10-26T14:55:20;5.13;;;1.90;;
46505;SDS011;32220;49.808;9.968;2022-10-26T14:57:50;1.43;;;1.27;;
46505;SDS011;32220;49.808;9.968;2022-10-26T15:00:21;2.40;;;1.30;;
46505;SDS011;32220;49.808;9.968;2022-10-26T15:02:50;3.03;;;1.40;;
46505;SDS011;32220;49.808;9.968;2022-10-26T15:05:23;2.23;;;1.37;;
46505;SDS011;32220;49.808;9.968;2022-10-26T15:07:54;2.70;;;1.30;;
46505;SDS011;32220;49.808;9.968;2022-10-26T15:13:20;4.13;;;2.30;;
46505;SDS011;32220;49.808;9.968;2022-10-26T15:15:52;5.80;;;3.23;;
46505;SDS011;32220;49.808;9.968;2022-10-26T15:18:22;7.67;;;3.57;;
46505;SDS011;32220;49.808;9.968;2022-10-26T15:20:53;4.33;;;2.87;;
46505;SDS011;32220;49.808;9.968;2022-10-26T15:23:22;6.00;;;3.30;;
46505;SDS011;32220;49.808;9.968;2022-10-26T15:25:52;4.33;;;2.73;;
46505;SDS011;32220;49.808;9.968;2022-10-26T15:28:24;3.47;;;2.90;;
46505;SDS011;32220;49.808;9.968;2022-10-26T15:31:00;4.80;;;2.23;;
46505;SDS011;32220;49.808;9.968;2022-10-26T15:33:29;4.47;;;2.13;;
46505;SDS011;32220;49.808;9.968;2022-10-26T15:36:08;4.73;;;1.93;;
46505;SDS011;32220;49.808;9.968;2022-10-26T15:38:39;5.10;;;2.40;;
46505;SDS011;32220;49.808;9.968;2022-10-26T15:41:12;2.20;;;1.80;;
46505;SDS011;32220;49.808;9.968;2022-10-26T15:43:51;3.50;;;1.97;;
46505;SDS011;32220;49.808;9.968;2022-10-26T15:46:22;5.50;;;1.43;;
46505;SDS011;32220;49.808;9.968;2022-10-26T15:48:53;2.40;;;1.97;;
46505;SDS011;32220;49.808;9.968;2022-10-26T15:51:22;2.77;;;1.70;;
46505;SDS011;32220;49.808;9.968;2022-10-26T15:53:50;4.70;;;1.83;;
46505;SDS011;32220;49.808;9.968;2022-10-26T15:56:19;3.50;;;1.70;;
46505;SDS011;32220;49.808;9.968;2022-10-26T15:58:51;3.07;;;1.93;;
46505;SDS011;32220;49.808;9.968;2022-10-26T16:01:21;3.03;;;1.80;;
46505;SDS011;32220;49.808;9.968;2022-10-26T16:03:50;3.40;;;1.80;;
46505;SDS011;32220;49.808;9.968;2022-10-26T16:06:20;6.37;;;2.17;;
46505;SDS011;32220;49.808;9.968;2022-10-26T16:08:52;2.10;;;1.67;;
46505;SDS011;32220;49.808;9.968;2022-10-26T16:11:23;3.20;;;1.90;;
46505;SDS011;32220;49.808;9.968;2022-10-26T16:13:52;3.13;;;2.10;;
46505;SDS011;32220;49.808;9.968;2022-10-26T16:16:20;3.40;;;1.90;;
46505;SDS011;32220;49.808;9.968;2022-10-26T16:18:51;3.50;;;2.07;;
46505;SDS011;32220;49.808;9.968;2022-10-26T16:21:19;2.10;;;1.70;;
46505;SDS011;32220;49.808;9.968;2022-10-26T16:23:48;4.03;;;2.47;;
46505;SDS011;32220;49.808;9.968;2022-10-26T16:26:18;2.33;;;2.00;;
46505;SDS011;32220;49.808;9.968;2022-10-26T16:28:46;4.00;;;2.10;;
46505;SDS011;32220;49.808;9.968;2022-10-26T16:31:16;3.80;;;2.10;;
46505;SDS011;32220;49.808;9.968;2022-10-26T16:33:45;3.80;;;2.17;;
46505;SDS011;32220;49.808;9.968;2022-10-26T16:36:13;5.57;;;2.63;;
46505;SDS011;32220;49.808;9.968;2022-10-26T16:38:42;3.97;;;2.17;;
46505;SDS011;32220;49.808;9.968;2022-10-26T16:41:11;4.90;;;2.40;;
46505;SDS011;32220;49.808;9.968;2022-10-26T16:43:40;3.63;;;1.90;;
46505;SDS011;32220;49.808;9.968;2022-10-26T16:46:10;4.33;;;2.00;;
46505;SDS011;32220;49.808;9.968;2022-10-26T16:48:41;1.77;;;1.63;;
46505;SDS011;32220;49.808;9.968;2022-10-26T16:51:10;3.50;;;2.40;;
46505;SDS011;32220;49.808;9.968;2022-10-26T16:53:39;4.43;;;1.93;;
46505;SDS011;32220;49.808;9.968;2022-10-26T16:56:08;2.37;;;1.80;;
46505;SDS011;32220;49.808;9.968;2022-10-26T16:58:38;2.80;;;1.80;;
46505;SDS011;32220;49.808;9.968;2022-10-26T17:01:06;2.47;;;1.80;;
46505;SDS011;32220;49.808;9.968;2022-10-26T17:03:35;2.90;;;1.87;;
46505;SDS011;32220;49.808;9.968;2022-10-26T17:06:05;3.93;;;2.10;;
46505;SDS011;32220;49.808;9.968;2022-10-26T17:08:34;5.47;;;2.27;;
46505;SDS011;32220;49.808;9.968;2022-10-26T17:11:03;3.00;;;2.27;;
46505;SDS011;32220;49.808;9.968;2022-10-26T17:13:33;3.67;;;2.47;;
46505;SDS011;32220;49.808;9.968;2022-10-26T17:16:00;2.77;;;2.30;;
46505;SDS011;32220;49.808;9.968;2022-10-26T17:18:29;2.60;;;2.40;;
46505;SDS011;32220;49.808;9.968;2022-10-26T17:20:57;3.77;;;2.43;;
46505;SDS011;32220;49.808;9.968;2022-10-26T17:23:26;4.03;;;2.90;;
46505;SDS011;32220;49.808;9.968;2022-10-26T17:25:54;3.07;;;2.30;;
46505;SDS011;32220;49.808;9.968;2022-10-26T17:28:27;4.10;;;1.87;;
46505;SDS011;32220;49.808;9.968;2022-10-26T17:31:00;3.40;;;2.17;;
46505;SDS011;32220;49.808;9.968;2022-10-26T17:33:30;2.47;;;2.00;;
46505;SDS011;32220;49.808;9.968;2022-10-26T17:35:58;2.37;;;1.80;;
46505;SDS011;32220;49.808;9.968;2022-10-26T17:38:30;2.53;;;2.23;;
46505;SDS011;32220;49.808;9.968;2022-10-26T17:40:59;2.97;;;1.90;;
46505;SDS011;32220;49.808;9.968;2022-10-26T17:43:31;5.63;;;3.17;;
46505;SDS011;32220;49.808;9.968;2022-10-26T17:46:00;3.10;;;2.80;;
46505;SDS011;32220;49.808;9.968;2022-10-26T17:48:29;5.83;;;2.57;;
46505;SDS011;32220;49.808;9.968;2022-10-26T17:50:57;3.67;;;2.20;;
46505;SDS011;32220;49.808;9.968;2022-10-26T17:53:26;3.13;;;2.40;;
46505;SDS011;32220;49.808;9.968;2022-10-26T17:56:02;3.37;;;2.67;;
46505;SDS011;32220;49.808;9.968;2022-10-26T17:58:31;3.07;;;2.47;;
46505;SDS011;32220;49.808;9.968;2022-10-26T18:01:00;4.07;;;3.57;;
46505;SDS011;32220;49.808;9.968;2022-10-26T18:03:30;5.03;;;2.50;;
46505;SDS011;32220;49.808;9.968;2022-10-26T18:05:58;3.57;;;2.10;;
46505;SDS011;32220;49.808;9.968;2022-10-26T18:08:29;3.00;;;1.97;;
46505;SDS011;32220;49.808;9.968;2022-10-26T18:10:57;4.03;;;2.50;;
46505;SDS011;32220;49.808;9.968;2022-10-26T18:13:27;3.13;;;1.97;;
46505;SDS011;32220;49.808;9.968;2022-10-26T18:16:01;4.00;;;2.40;;
46505;SDS011;32220;49.808;9.968;2022-10-26T18:18:29;2.73;;;2.50;;
46505;SDS011;32220;49.808;9.968;2022-10-26T18:21:00;3.93;;;2.40;;
46505;SDS011;32220;49.808;9.968;2022-10-26T18:23:28;5.20;;;2.60;;
46505;SDS011;32220;49.808;9.968;2022-10-26T18:25:59;4.93;;;2.57;;
46505;SDS011;32220;49.808;9.968;2022-10-26T18:28:30;2.50;;;1.90;;
46505;SDS011;32220;49.808;9.968;2022-10-26T18:30:59;3.47;;;2.53;;
46505;SDS011;32220;49.808;9.968;2022-10-26T18:33:30;3.83;;;2.43;;
46505;SDS011;32220;49.808;9.968;2022-10-26T18:35:59;4.23;;;2.13;;
46505;SDS011;32220;49.808;9.968;2022-10-26T18:38:29;4.67;;;2.80;;
46505;SDS011;32220;49.808;9.968;2022-10-26T18:40:57;4.67;;;2.53;;
46505;SDS011;32220;49.808;9.968;2022-10-26T18:43:25;4.17;;;2.73;;
46505;SDS011;32220;49.808;9.968;2022-10-26T18:46:02;4.27;;;2.70;;
46505;SDS011;32220;49.808;9.968;2022-10-26T18:48:31;4.57;;;3.10;;
46505;SDS011;32220;49.808;9.968;2022-10-26T18:51:02;3.37;;;2.87;;
46505;SDS011;32220;49.808;9.968;2022-10-26T18:53:32;3.67;;;2.80;;
46505;SDS011;32220;49.808;9.968;2022-10-26T18:56:00;5.77;;;2.90;;
46505;SDS011;32220;49.808;9.968;2022-10-26T18:58:29;4.50;;;2.47;;
46505;SDS011;32220;49.808;9.968;2022-10-26T19:01:05;6.00;;;3.90;;
46505;SDS011;32220;49.808;9.968;2022-10-26T19:03:35;2.80;;;2.50;;
46505;SDS011;32220;49.808;9.968;2022-10-26T19:06:07;3.27;;;2.80;;
46505;SDS011;32220;49.808;9.968;2022-10-26T19:08:37;4.50;;;2.70;;
46505;SDS011;32220;49.808;9.968;2022-10-26T19:11:05;3.60;;;2.60;;
46505;SDS011;32220;49.808;9.968;2022-10-26T19:13:35;2.53;;;2.23;;
46505;SDS011;32220;49.808;9.968;2022-10-26T19:16:06;2.60;;;2.40;;
46505;SDS011;32220;49.808;9.968;2022-10-26T19:18:35;4.37;;;3.13;;
46505;SDS011;32220;49.808;9.968;2022-10-26T19:21:04;4.03;;;2.87;;
46505;SDS011;32220;49.808;9.968;2022-10-26T19:23:33;4.60;;;3.40;;
46505;SDS011;32220;49.808;9.968;2022-10-26T19:26:02;4.83;;;2.63;;
46505;SDS011;32220;49.808;9.968;2022-10-26T19:28:31;4.83;;;2.80;;
46505;SDS011;32220;49.808;9.968;2022-10-26T19:30:59;5.90;;;3.40;;
46505;SDS011;32220;49.808;9.968;2022-10-26T19:33:31;3.37;;;2.70;;
46505;SDS011;32220;49.808;9.968;2022-10-26T19:35:59;5.03;;;2.70;;
46505;SDS011;32220;49.808;9.968;2022-10-26T19:38:28;4.30;;;2.83;;
46505;SDS011;32220;49.808;9.968;2022-10-26T19:40:56;4.90;;;3.00;;
46505;SDS011;32220;49.808;9.968;2022-10-26T19:43:25;6.40;;;3.90;;
46505;SDS011;32220;49.808;9.968;2022-10-26T19:45:54;8.43;;;5.30;;
46505;SDS011;32220;49.808;9.968;2022-10-26T19:48:22;6.70;;;4.77;;
46505;SDS011;32220;49.808;9.968;2022-10-26T19:50:52;7.13;;;4.47;;
46505;SDS011;32220;49.808;9.968;2022-10-26T19:53:21;7.63;;;4.83;;
46505;SDS011;32220;49.808;9.968;2022-10-26T19:55:48;7.00;;;4.50;;
46505;SDS011;32220;49.808;9.968;2022-10-26T19:58:22;4.67;;;3.83;;
46505;SDS011;32220;49.808;9.968;2022-10-26T20:00:50;6.30;;;3.63;;
46505;SDS011;32220;49.808;9.968;2022-10-26T20:03:21;4.87;;;3.83;;
46505;SDS011;32220;49.808;9.968;2022-10-26T20:05:53;4.27;;;3.40;;
46505;SDS011;32220;49.808;9.968;2022-10-26T20:08:21;4.90;;;4.30;;
46505;SDS011;32220;49.808;9.968;2022-10-26T20:10:51;7.03;;;4.50;;
46505;SDS011;32220;49.808;9.968;2022-10-26T20:13:20;6.27;;;4.13;;
46505;SDS011;32220;49.808;9.968;2022-10-26T20:15:49;4.90;;;4.50;;
46505;SDS011;32220;49.808;9.968;2022-10-26T20:18:18;5.53;;;4.00;;
46505;SDS011;32220;49.808;9.968;2022-10-26T20:20:46;6.10;;;4.27;;
46505;SDS011;32220;49.808;9.968;2022-10-26T20:23:15;4.33;;;3.77;;
46505;SDS011;32220;49.808;9.968;2022-10-26T20:25:43;4.93;;;4.20;;
46505;SDS011;32220;49.808;9.968;2022-10-26T20:28:13;6.03;;;4.23;;
46505;SDS011;32220;49.808;9.968;2022-10-26T20:30:42;7.50;;;5.57;;
46505;SDS011;32220;49.808;9.968;2022-10-26T20:33:11;7.93;;;5.17;;
46505;SDS011;32220;49.808;9.968;2022-10-26T20:35:39;8.43;;;6.17;;
46505;SDS011;32220;49.808;9.968;2022-10-26T20:38:11;7.90;;;5.53;;
46505;SDS011;32220;49.808;9.968;2022-10-26T20:40:44;8.07;;;5.80;;
46505;SDS011;32220;49.808;9.968;2022-10-26T20:43:20;7.53;;;5.03;;
46505;SDS011;32220;49.808;9.968;2022-10-26T20:45:48;7.73;;;5.60;;
46505;SDS011;32220;49.808;9.968;2022-10-26T20:48:16;6.87;;;5.03;;
46505;SDS011;32220;49.808;9.968;2022-10-26T20:50:47;6.33;;;4.83;;
46505;SDS011;32220;49.808;9.968;2022-10-26T20:53:24;4.50;;;4.00;;
46505;SDS011;32220;49.808;9.968;2022-10-26T20:55:54;7.07;;;4.23;;
46505;SDS011;32220;49.808;9.968;2022-10-26T20:58:33;5.13;;;4.10;;
46505;SDS011;32220;49.808;9.968;2022-10-26T21:01:05;4.67;;;4.00;;
46505;SDS011;32220;49.808;9.968;2022-10-26T21:03:35;6.47;;;4.57;;
46505;SDS011;32220;49.808;9.968;2022-10-26T21:06:03;4.20;;;3.80;;
46505;SDS011;32220;49.808;9.968;2022-10-26T21:08:33;4.13;;;3.60;;
46505;SDS011;32220;49.808;9.968;2022-10-26T21:11:00;4.20;;;3.03;;
46505;SDS011;32220;49.808;9.968;2022-10-26T21:13:28;3.93;;;3.00;;
46505;SDS011;32220;49.808;9.968;2022-10-26T21:15:56;4.27;;;3.77;;
46505;SDS011;32220;49.808;9.968;2022-10-26T21:18:23;5.07;;;4.40;;
46505;SDS011;32220;49.808;9.968;2022-10-26T21:20:51;4.40;;;4.00;;
46505;SDS011;32220;49.808;9.968;2022-10-26T21:23:23;6.47;;;4.40;;
46505;SDS011;32220;49.808;9.968;2022-10-26T21:25:54;5.20;;;4.70;;
46505;SDS011;32220;49.808;9.968;2022-10-26T21:28:22;7.10;;;3.80;;
46505;SDS011;32220;49.808;9.968;2022-10-26T21:30:49;5.03;;;3.47;;
46505;SDS011;32220;49.808;9.968;2022-10-26T21:33:17;4.37;;;3.63;;
46505;SDS011;32220;49.808;9.968;2022-10-26T21:35:54;7.77;;;4.30;;
46505;SDS011;32220;49.808;9.968;2022-10-26T21:38:22;4.97;;;4.03;;
46505;SDS011;32220;49.808;9.968;2022-10-26T21:40:50;4.67;;;4.00;;
46505;SDS011;32220;49.808;9.968;2022-10-26T21:43:19;5.53;;;4.30;;
46505;SDS011;32220;49.808;9.968;2022-10-26T21:45:47;4.73;;;4.23;;
46505;SDS011;32220;49.808;9.968;2022-10-26T21:48:22;4.77;;;4.13;;
46505;SDS011;32220;49.808;9.968;2022-10-26T21:50:50;5.23;;;4.23;;
46505;SDS011;32220;49.808;9.968;2022-10-26T21:53:17;5.07;;;3.77;;
46505;SDS011;32220;49.808;9.968;2022-10-26T21:55:45;4.23;;;3.83;;
46505;SDS011;32220;49.808;9.968;2022-10-26T21:58:14;4.67;;;4.20;;
46505;SDS011;32220;49.808;9.968;2022-10-26T22:00:44;5.50;;;3.80;;
46505;SDS011;32220;49.808;9.968;2022-10-26T22:03:12;6.00;;;4.10;;
46505;SDS011;32220;49.808;9.968;2022-10-26T22:05:39;4.73;;;4.17;;
46505;SDS011;32220;49.808;9.968;2022-10-26T22:08:07;6.07;;;4.07;;
46505;SDS011;32220;49.808;9.968;2022-10-26T22:10:35;5.57;;;4.37;;
46505;SDS011;32220;49.808;9.968;2022-10-26T22:13:03;5.90;;;4.27;;
46505;SDS011;32220;49.808;9.968;2022-10-26T22:15:30;6.53;;;4.10;;
46505;SDS011;32220;49.808;9.968;2022-10-26T22:18:00;4.83;;;3.73;;
46505;SDS011;32220;49.808;9.968;2022-10-26T22:20:28;5.17;;;3.73;;
46505;SDS011;32220;49.808;9.968;2022-10-26T22:22:55;6.43;;;4.40;;
46505;SDS011;32220;49.808;9.968;2022-10-26T22:25:23;4.27;;;3.83;;
46505;SDS011;32220;49.808;9.968;2022-10-26T22:27:51;5.97;;;3.67;;
46505;SDS011;32220;49.808;9.968;2022-10-26T22:30:18;4.43;;;4.03;;
46505;SDS011;32220;49.808;9.968;2022-10-26T22:32:47;5.67;;;3.60;;
46505;SDS011;32220;49.808;9.968;2022-10-26T22:35:16;3.97;;;3.57;;
46505;SDS011;32220;49.808;9.968;2022-10-26T22:37:43;4.60;;;3.57;;
46505;SDS011;32220;49.808;9.968;2022-10-26T22:40:11;4.27;;;3.87;;
46505;SDS011;32220;49.808;9.968;2022-10-26T22:42:39;4.93;;;3.87;;
46505;SDS011;32220;49.808;9.968;2022-10-26T22:45:07;6.47;;;4.47;;
46505;SDS011;32220;49.808;9.968;2022-10-26T22:47:35;7.33;;;5.57;;
46505;SDS011;32220;49.808;9.968;2022-10-26T22:50:03;8.07;;;5.03;;
46505;SDS011;32220;49.808;9.968;2022-10-26T22:52:33;6.00;;;4.47;;
46505;SDS011;32220;49.808;9.968;2022-10-26T22:55:01;6.57;;;4.83;;
46505;SDS011;32220;49.808;9.968;2022-10-26T22:57:29;7.27;;;4.53;;
46505;SDS011;32220;49.808;9.968;2022-10-26T22:59:57;5.60;;;4.67;;
46505;SDS011;32220;49.808;9.968;2022-10-26T23:02:24;5.87;;;4.90;;
46505;SDS011;32220;49.808;9.968;2022-10-26T23:04:52;7.23;;;4.77;;
46505;SDS011;32220;49.808;9.968;2022-10-26T23:07:20;4.53;;;4.13;;
46505;SDS011;32220;49.808;9.968;2022-10-26T23:09:52;6.53;;;4.27;;
46505;SDS011;32220;49.808;9.968;2022-10-26T23:12:20;6.57;;;4.60;;
46505;SDS011;32220;49.808;9.968;2022-10-26T23:14:47;6.03;;;4.00;;
46505;SDS011;32220;49.808;9.968;2022-10-26T23:17:15;5.23;;;4.03;;
46505;SDS011;32220;49.808;9.968;2022-10-26T23:19:43;6.63;;;4.30;;
46505;SDS011;32220;49.808;9.968;2022-10-26T23:22:11;4.90;;;3.83;;
46505;SDS011;32220;49.808;9.968;2022-10-26T23:24:39;4.70;;;3.93;;
46505;SDS011;32220;49.808;9.968;2022-10-26T23:27:08;6.57;;;4.03;;
46505;SDS011;32220;49.808;9.968;2022-10-26T23:29:36;5.53;;;4.30;;
46505;SDS011;32220;49.808;9.968;2022-10-26T23:32:04;5.00;;;4.07;;
46505;SDS011;32220;49.808;9.968;2022-10-26T23:34:32;5.77;;;3.40;;
46505;SDS011;32220;49.808;9.968;2022-10-26T23:36:59;4.30;;;3.47;;
46505;SDS011;32220;49.808;9.968;2022-10-26T23:39:27;6.23;;;4.10;;
46505;SDS011;32220;49.808;9.968;2022-10-26T23:41:54;7.40;;;4.13;;
46505;SDS011;32220;49.808;9.968;2022-10-26T23:44:23;6.00;;;4.30;;
46505;SDS011;32220;49.808;9.968;2022-10-26T23:46:51;4.20;;;3.57;;
46505;SDS011;32220;49.808;9.968;2022-10-26T23:49:19;3.80;;;3.40;;